Time,TemperatureF,DewpointF,PressureIn,WindDirection,WindDirectionDegrees,WindSpeedMPH,WindSpeedGustMPH,Humidity,HourlyPrecipIn,Conditions,Clouds,dailyrainin,SoftwareType,DateUTC
2013-09-02 00:12:00,66.0,65.4,29.74,West,270,0.0,-999.0,98,-99.99,,,0.00,Acu-Link.com,2013-09-02 04:12:00,
2013-09-02 00:27:00,65.8,65.2,29.74,ESE,112,0.0,-999.0,98,-99.99,,,0.00,Acu-Link.com,2013-09-02 04:27:00,
2013-09-02 00:42:00,65.8,65.2,29.73,West,270,0.0,-999.0,98,-99.99,,,0.00,Acu-Link.com,2013-09-02 04:42:00,
2013-09-02 00:58:00,65.8,65.2,29.73,SE,135,0.0,-999.0,98,-99.99,,,0.00,Acu-Link.com,2013-09-02 04:58:00,
2013-09-02 01:13:00,65.7,65.1,29.74,WNW,292,1.1,-999.0,98,-99.99,,,0.00,Acu-Link.com,2013-09-02 05:13:00,
2013-09-02 01:28:00,66.2,65.6,29.73,ENE,67,0.0,-999.0,98,-99.99,,,0.00,Acu-Link.com,2013-09-02 05:28:00,
2013-09-02 01:43:00,66.2,65.6,29.74,West,270,0.0,-999.0,98,-99.99,,,0.00,Acu-Link.com,2013-09-02 05:43:00,
2013-09-02 01:58:00,66.4,65.8,29.73,West,270,0.0,-999.0,98,-99.99,,,0.00,Acu-Link.com,2013-09-02 05:58:00,
2013-09-02 02:14:00,66.4,65.8,29.73,South,180,0.0,-999.0,98,-99.99,,,0.00,Acu-Link.com,2013-09-02 06:14:00,
2013-09-02 02:29:00,66.2,65.6,29.72,West,270,0.0,-999.0,98,-99.99,,,0.00,Acu-Link.com,2013-09-02 06:29:00,
2013-09-02 02:44:00,66.2,65.6,29.71,ESE,112,0.0,-999.0,98,-99.99,,,0.00,Acu-Link.com,2013-09-02 06:44:00,
2013-09-02 02:59:00,66.2,65.6,29.71,SW,225,0.0,-999.0,98,-99.99,,,0.00,Acu-Link.com,2013-09-02 06:59:00,
2013-09-02 03:15:00,66.2,65.6,29.70,West,270,3.7,-999.0,98,-99.99,,,0.00,Acu-Link.com,2013-09-02 07:15:00,
2013-09-02 03:30:00,66.2,65.6,29.70,ENE,67,0.0,-999.0,98,-99.99,,,0.00,Acu-Link.com,2013-09-02 07:30:00,
2013-09-02 03:45:00,66.2,65.6,29.69,West,270,0.0,-999.0,98,-99.99,,,0.00,Acu-Link.com,2013-09-02 07:45:00,
2013-09-02 04:00:00,66.2,65.6,29.69,WNW,292,0.0,-999.0,98,-99.99,,,0.00,Acu-Link.com,2013-09-02 08:00:00,
2013-09-02 04:16:00,66.2,65.6,29.69,SSW,202,0.0,-999.0,98,-99.99,,,0.00,Acu-Link.com,2013-09-02 08:16:00,
2013-09-02 04:31:00,66.4,65.8,29.68,SSE,157,0.0,-999.0,98,-99.99,,,0.00,Acu-Link.com,2013-09-02 08:31:00,
2013-09-02 04:46:00,66.4,65.8,29.68,West,270,0.0,-999.0,98,-99.99,,,0.00,Acu-Link.com,2013-09-02 08:46:00,
2013-09-02 05:01:00,66.4,65.8,29.69,WNW,292,0.0,-999.0,98,-99.99,,,0.00,Acu-Link.com,2013-09-02 09:01:00,
2013-09-02 05:16:00,66.7,66.1,29.69,West,270,0.0,-999.0,98,-99.99,,,0.00,Acu-Link.com,2013-09-02 09:16:00,
2013-09-02 05:31:00,67.1,66.5,29.69,NNE,22,0.0,-999.0,98,-99.99,,,0.00,Acu-Link.com,2013-09-02 09:31:00,
2013-09-02 05:47:00,67.5,66.9,29.70,NE,45,0.0,-999.0,98,-99.99,,,0.00,Acu-Link.com,2013-09-02 09:47:00,
2013-09-02 06:02:00,67.5,66.9,29.69,SSE,157,0.0,-999.0,98,-99.99,,,0.00,Acu-Link.com,2013-09-02 10:02:00,
2013-09-02 06:17:00,67.5,66.9,29.69,SSW,202,0.0,-999.0,98,-99.99,,,0.00,Acu-Link.com,2013-09-02 10:17:00,
2013-09-02 06:32:00,67.5,66.9,29.69,NNE,22,0.0,-999.0,98,-99.99,,,0.00,Acu-Link.com,2013-09-02 10:32:00,
2013-09-02 06:47:00,67.5,66.9,29.69,NW,315,0.0,-999.0,98,-99.99,,,0.00,Acu-Link.com,2013-09-02 10:47:00,
2013-09-02 07:03:00,67.5,66.9,29.69,NNW,337,0.0,-999.0,98,-99.99,,,0.00,Acu-Link.com,2013-09-02 11:03:00,
2013-09-02 07:18:00,68.0,67.4,29.68,NNW,337,0.0,-999.0,98,-99.99,,,0.00,Acu-Link.com,2013-09-02 11:18:00,
2013-09-02 07:33:00,68.0,67.4,29.68,West,270,0.0,-999.0,98,-99.99,,,0.00,Acu-Link.com,2013-09-02 11:33:00,
2013-09-02 07:48:00,68.5,67.9,29.68,WNW,292,0.0,-999.0,98,-99.99,,,0.00,Acu-Link.com,2013-09-02 11:48:00,
2013-09-02 08:03:00,68.7,68.1,29.68,WNW,292,0.0,-999.0,98,-99.99,,,0.00,Acu-Link.com,2013-09-02 12:03:00,
2013-09-02 08:19:00,68.9,68.3,29.68,West,270,0.0,-999.0,98,-99.99,,,0.00,Acu-Link.com,2013-09-02 12:19:00,
2013-09-02 08:34:00,69.1,68.5,29.67,West,270,0.0,-999.0,98,-99.99,,,0.00,Acu-Link.com,2013-09-02 12:34:00,
2013-09-02 08:49:00,69.8,69.2,29.67,WNW,292,0.0,-999.0,98,-99.99,,,0.00,Acu-Link.com,2013-09-02 12:49:00,
2013-09-02 09:04:00,70.3,69.7,29.67,SE,135,0.0,-999.0,98,-99.99,,,0.00,Acu-Link.com,2013-09-02 13:04:00,
2013-09-02 09:20:00,70.7,70.1,29.67,West,270,0.0,-999.0,98,-99.99,,,0.00,Acu-Link.com,2013-09-02 13:20:00,
2013-09-02 09:35:00,71.4,70.8,29.67,South,180,0.0,-999.0,98,-99.99,,,0.00,Acu-Link.com,2013-09-02 13:35:00,
2013-09-02 09:50:00,72.0,71.4,29.67,SSE,157,0.0,-999.0,98,-99.99,,,0.00,Acu-Link.com,2013-09-02 13:50:00,
2013-09-02 10:05:00,72.1,71.5,29.66,SE,135,3.2,-999.0,98,-99.99,,,0.00,Acu-Link.com,2013-09-02 14:05:00,
2013-09-02 10:20:00,72.9,72.3,29.66,SE,135,3.2,-999.0,98,-99.99,,,0.00,Acu-Link.com,2013-09-02 14:20:00,
2013-09-02 10:36:00,72.9,72.3,29.67,SE,135,3.2,-999.0,98,-99.99,,,0.00,Acu-Link.com,2013-09-02 14:36:00,
2013-09-02 10:51:00,73.8,73.2,29.67,SE,135,2.7,-999.0,98,-99.99,,,0.00,Acu-Link.com,2013-09-02 14:51:00,
2013-09-02 11:06:00,74.1,73.5,29.67,SE,135,0.0,-999.0,98,-99.99,,,0.00,Acu-Link.com,2013-09-02 15:06:00,
2013-09-02 11:21:00,75.2,74.6,29.66,SSW,202,0.0,-999.0,98,-99.99,,,0.00,Acu-Link.com,2013-09-02 15:21:00,
2013-09-02 11:36:00,75.0,74.4,29.66,ESE,112,4.7,-999.0,98,-99.99,,,0.00,Acu-Link.com,2013-09-02 15:36:00,
2013-09-02 11:52:00,76.6,76.0,29.66,SE,135,2.2,-999.0,98,-99.99,,,0.00,Acu-Link.com,2013-09-02 15:52:00,
2013-09-02 12:07:00,76.8,76.2,29.65,ESE,112,3.7,-999.0,98,-99.99,,,0.00,Acu-Link.com,2013-09-02 16:07:00,
2013-09-02 12:22:00,77.2,76.6,29.64,ESE,112,5.3,-999.0,98,-99.99,,,0.00,Acu-Link.com,2013-09-02 16:22:00,
2013-09-02 12:37:00,77.9,77.3,29.64,East,90,3.2,-999.0,98,-99.99,,,0.00,Acu-Link.com,2013-09-02 16:37:00,
2013-09-02 12:52:00,78.8,78.2,29.64,SE,135,4.7,-999.0,98,-99.99,,,0.00,Acu-Link.com,2013-09-02 16:52:00,
2013-09-02 13:08:00,77.7,77.1,29.64,ESE,112,5.3,-999.0,98,-99.99,,,0.00,Acu-Link.com,2013-09-02 17:08:00,
2013-09-02 13:23:00,78.4,77.8,29.63,SSE,157,2.2,-999.0,98,-99.99,,,0.00,Acu-Link.com,2013-09-02 17:23:00,
2013-09-02 13:38:00,79.3,78.7,29.63,ESE,112,3.2,-999.0,98,-99.99,,,0.00,Acu-Link.com,2013-09-02 17:38:00,
2013-09-02 13:53:00,80.4,79.8,29.62,ESE,112,2.2,-999.0,98,-99.99,,,0.00,Acu-Link.com,2013-09-02 17:53:00,
2013-09-02 14:09:00,84.0,83.4,29.61,East,90,6.8,-999.0,98,-99.99,,,0.00,Acu-Link.com,2013-09-02 18:09:00,
2013-09-02 14:24:00,80.1,79.5,29.60,ESE,112,3.2,-999.0,98,-99.99,,,0.00,Acu-Link.com,2013-09-02 18:24:00,
2013-09-02 14:39:00,80.2,79.6,29.60,South,180,5.8,-999.0,98,-99.99,,,0.00,Acu-Link.com,2013-09-02 18:39:00,
2013-09-02 14:54:00,82.6,82.0,29.59,South,180,4.2,-999.0,98,-99.99,,,0.00,Acu-Link.com,2013-09-02 18:54:00,
2013-09-02 15:09:00,84.7,84.1,29.59,SSE,157,6.8,-999.0,98,-99.99,,,0.00,Acu-Link.com,2013-09-02 19:09:00,
2013-09-02 15:25:00,82.9,82.3,29.58,WNW,292,3.2,-999.0,98,-99.99,,,0.00,Acu-Link.com,2013-09-02 19:25:00,
2013-09-02 15:40:00,80.6,80.0,29.58,SSE,157,4.7,-999.0,98,-99.99,,,0.00,Acu-Link.com,2013-09-02 19:40:00,
2013-09-02 15:55:00,81.0,80.4,29.58,SE,135,4.7,-999.0,98,-99.99,,,0.00,Acu-Link.com,2013-09-02 19:55:00,
2013-09-02 16:11:00,82.4,81.8,29.57,ESE,112,5.3,-999.0,98,-99.99,,,0.00,Acu-Link.com,2013-09-02 20:11:00,
2013-09-02 16:26:00,81.1,80.5,29.57,SSE,157,6.8,-999.0,98,-99.99,,,0.00,Acu-Link.com,2013-09-02 20:26:00,
2013-09-02 16:41:00,79.5,78.9,29.57,SSW,202,5.3,-999.0,98,-99.99,,,0.00,Acu-Link.com,2013-09-02 20:41:00,
2013-09-02 16:56:00,79.5,78.9,29.56,South,180,4.2,-999.0,98,-99.99,,,0.00,Acu-Link.com,2013-09-02 20:56:00,
2013-09-02 17:12:00,81.7,81.1,29.56,ESE,112,2.7,-999.0,98,-99.99,,,0.00,Acu-Link.com,2013-09-02 21:12:00,
2013-09-02 17:27:00,82.2,81.6,29.56,SE,135,5.8,-999.0,98,-99.99,,,0.00,Acu-Link.com,2013-09-02 21:27:00,
2013-09-02 17:42:00,80.8,80.2,29.55,ESE,112,6.8,-999.0,98,-99.99,,,0.00,Acu-Link.com,2013-09-02 21:42:00,
2013-09-02 17:57:00,80.6,80.0,29.55,SSE,157,5.8,-999.0,98,-99.99,,,0.00,Acu-Link.com,2013-09-02 21:57:00,
2013-09-02 18:12:00,81.3,80.7,29.55,SE,135,3.7,-999.0,98,-99.99,,,0.00,Acu-Link.com,2013-09-02 22:12:00,
2013-09-02 18:28:00,78.6,78.0,29.55,SSW,202,2.2,-999.0,98,-99.99,,,0.00,Acu-Link.com,2013-09-02 22:28:00,
2013-09-02 18:43:00,77.0,76.4,29.55,SE,135,3.2,-999.0,98,-99.99,,,0.00,Acu-Link.com,2013-09-02 22:43:00,
2013-09-02 18:58:00,75.9,75.3,29.56,South,180,0.0,-999.0,98,-99.99,,,0.00,Acu-Link.com,2013-09-02 22:58:00,
2013-09-02 19:13:00,75.0,74.4,29.56,South,180,0.0,-999.0,98,-99.99,,,0.00,Acu-Link.com,2013-09-02 23:13:00,
2013-09-02 19:29:00,74.5,73.9,29.56,West,270,0.0,-999.0,98,-99.99,,,0.00,Acu-Link.com,2013-09-02 23:29:00,
2013-09-02 19:44:00,73.0,72.4,29.56,West,270,0.0,-999.0,98,-99.99,,,0.00,Acu-Link.com,2013-09-02 23:44:00,
2013-09-02 19:59:00,72.3,71.7,29.56,ENE,67,0.0,-999.0,98,-99.99,,,0.00,Acu-Link.com,2013-09-02 23:59:00,
2013-09-02 20:14:00,71.6,71.0,29.55,ESE,112,0.0,-999.0,98,-99.99,,,0.00,Acu-Link.com,2013-09-03 00:14:00,
2013-09-02 20:29:00,71.6,71.0,29.55,WSW,247,0.0,-999.0,98,-99.99,,,0.00,Acu-Link.com,2013-09-03 00:29:00,
2013-09-02 20:45:00,71.2,70.6,29.57,West,270,6.8,-999.0,98,-99.99,,,0.00,Acu-Link.com,2013-09-03 00:45:00,
2013-09-02 21:00:00,71.2,70.6,29.57,WSW,247,6.3,-999.0,98,-99.99,,,0.00,Acu-Link.com,2013-09-03 01:00:00,
2013-09-02 21:15:00,65.3,64.7,29.60,East,90,0.0,-999.0,98,-99.99,,,0.01,Acu-Link.com,2013-09-03 01:15:00,
2013-09-02 21:30:00,65.1,64.5,29.61,SSE,157,5.8,-999.0,98,-99.99,,,0.22,Acu-Link.com,2013-09-03 01:30:00,
2013-09-02 21:45:00,64.2,63.6,29.60,ENE,67,0.0,-999.0,98,-99.99,,,0.25,Acu-Link.com,2013-09-03 01:45:00,
2013-09-02 22:01:00,63.9,63.3,29.59,WSW,247,0.0,-999.0,98,-99.99,,,0.30,Acu-Link.com,2013-09-03 02:01:00,
2013-09-02 22:16:00,63.3,62.7,29.60,ENE,67,0.0,-999.0,98,-99.99,,,0.32,Acu-Link.com,2013-09-03 02:16:00,
2013-09-02 22:31:00,63.3,62.7,29.59,NW,315,0.0,-999.0,98,-99.99,,,0.32,Acu-Link.com,2013-09-03 02:31:00,
2013-09-02 22:46:00,63.3,62.7,29.59,WNW,292,0.0,-999.0,98,-99.99,,,0.32,Acu-Link.com,2013-09-03 02:46:00,
2013-09-02 23:01:00,63.0,62.4,29.60,WNW,292,2.7,-999.0,98,-99.99,,,0.32,Acu-Link.com,2013-09-03 03:01:00,
2013-09-02 23:17:00,63.0,62.4,29.59,South,180,1.7,-999.0,98,-99.99,,,0.32,Acu-Link.com,2013-09-03 03:17:00,
2013-09-02 23:32:00,62.8,62.2,29.59,East,90,0.0,-999.0,98,-99.99,,,0.32,Acu-Link.com,2013-09-03 03:32:00,
2013-09-02 23:47:00,62.8,62.2,29.59,SE,135,2.2,-999.0,98,-99.99,,,0.32,Acu-Link.com,2013-09-03 03:47:00,